createdAt,value
2022-09-16T00:01:45.382Z,15.61
2022-09-16T00:04:13.904Z,15.60
2022-09-16T00:06:43.854Z,15.60
2022-09-16T00:09:12.396Z,15.57
2022-09-16T00:11:40.884Z,15.55
2022-09-16T00:14:09.399Z,15.54
2022-09-16T00:16:39.393Z,15.50
2022-09-16T00:19:08.240Z,15.48
2022-09-16T00:21:36.696Z,15.48
2022-09-16T00:24:05.725Z,15.50
2022-09-16T00:26:38.815Z,15.47
2022-09-16T00:29:07.414Z,15.46
2022-09-16T00:31:35.963Z,15.40
2022-09-16T00:34:06.180Z,15.42
2022-09-16T00:36:34.784Z,15.44
2022-09-16T00:39:03.265Z,15.44
2022-09-16T00:41:33.794Z,15.46
2022-09-16T00:44:04.106Z,15.43
2022-09-16T00:46:37.720Z,15.44
2022-09-16T00:49:13.714Z,15.39
2022-09-16T00:51:43.924Z,15.39
2022-09-16T00:54:15.765Z,15.39
2022-09-16T00:56:48.434Z,15.41
2022-09-16T00:59:21.055Z,15.38
2022-09-16T01:01:50.557Z,15.44
2022-09-16T01:04:24.294Z,15.40
2022-09-16T01:06:53.394Z,15.40
2022-09-16T01:09:25.934Z,15.41
2022-09-16T01:11:54.475Z,15.40
2022-09-16T01:14:42.445Z,15.37
2022-09-16T01:17:17.515Z,15.37
2022-09-16T01:20:10.825Z,15.37
2022-09-16T01:23:02.034Z,15.40
2022-09-16T01:25:46.054Z,15.39
2022-09-16T01:28:45.064Z,15.40
2022-09-16T01:31:20.114Z,15.40
2022-09-16T01:34:02.055Z,15.37
2022-09-16T01:36:42.884Z,15.35
2022-09-16T01:39:25.004Z,15.39
2022-09-16T01:42:16.355Z,15.38
2022-09-16T01:44:53.443Z,15.37
2022-09-16T01:47:32.476Z,15.31
2022-09-16T01:50:09.194Z,15.36
2022-09-16T01:52:47.386Z,15.34
2022-09-16T01:55:24.145Z,15.36
2022-09-16T01:57:57.089Z,15.26
2022-09-16T02:00:25.894Z,15.29
2022-09-16T02:03:01.372Z,15.28
2022-09-16T02:05:35.096Z,15.27
2022-09-16T02:08:07.994Z,15.28
2022-09-16T02:10:43.004Z,15.29
2022-09-16T02:13:17.905Z,15.23
2022-09-16T02:15:50.524Z,15.29
2022-09-16T02:18:26.464Z,15.28
2022-09-16T02:20:56.284Z,15.30
2022-09-16T02:23:28.715Z,15.29
2022-09-16T02:25:59.644Z,15.29
2022-09-16T02:28:34.415Z,15.30
2022-09-16T02:31:08.366Z,15.27
2022-09-16T02:33:43.466Z,15.28
2022-09-16T02:36:15.534Z,15.28
2022-09-16T02:38:47.874Z,15.26
2022-09-16T02:41:16.874Z,15.25
2022-09-16T02:43:47.015Z,15.24
2022-09-16T02:46:24.343Z,15.25
2022-09-16T02:49:03.374Z,15.27
2022-09-16T02:51:43.194Z,15.25
2022-09-16T02:54:20.197Z,15.22
2022-09-16T02:56:50.224Z,15.21
2022-09-16T02:59:19.364Z,15.24
2022-09-16T03:01:50.389Z,15.22
2022-09-16T03:04:24.437Z,15.18
2022-09-16T03:06:53.044Z,15.18
2022-09-16T03:09:25.083Z,15.21
2022-09-16T03:12:22.815Z,15.22
2022-09-16T03:15:26.873Z,15.16
2022-09-16T03:18:24.055Z,15.19
2022-09-16T03:21:01.863Z,15.18
2022-09-16T03:23:42.463Z,15.14
2022-09-16T03:26:17.684Z,15.13
2022-09-16T03:28:55.201Z,15.14
2022-09-16T03:31:31.649Z,15.10
2022-09-16T03:34:08.583Z,15.12
2022-09-16T03:36:44.904Z,15.11
2022-09-16T03:39:14.843Z,15.09
2022-09-16T03:41:44.424Z,15.05
2022-09-16T03:44:12.884Z,15.03
2022-09-16T03:46:41.556Z,15.00
2022-09-16T03:49:12.158Z,15.01
2022-09-16T03:51:42.126Z,15.01
2022-09-16T03:54:10.724Z,15.06
2022-09-16T03:56:39.155Z,15.02
2022-09-16T03:59:07.645Z,14.95
2022-09-16T04:01:37.297Z,14.93
2022-09-16T04:04:05.993Z,14.91
2022-09-16T04:06:34.654Z,14.85
2022-09-16T04:09:07.295Z,14.90
2022-09-16T04:11:36.134Z,14.90
2022-09-16T04:14:06.297Z,14.88
2022-09-16T04:16:35.435Z,14.88
2022-09-16T04:19:06.375Z,14.86
2022-09-16T04:21:35.175Z,14.86
2022-09-16T04:24:12.612Z,14.83
2022-09-16T04:26:41.766Z,14.83
2022-09-16T04:29:10.984Z,14.78
2022-09-16T04:31:39.614Z,14.76
2022-09-16T04:34:08.134Z,14.75
2022-09-16T04:36:36.687Z,14.74
2022-09-16T04:39:06.263Z,14.75
2022-09-16T04:41:36.245Z,14.77
2022-09-16T04:44:04.874Z,14.75
2022-09-16T04:46:33.889Z,14.72
2022-09-16T04:49:02.574Z,14.65
2022-09-16T04:51:32.385Z,14.65
2022-09-16T04:54:06.764Z,14.69
2022-09-16T04:56:36.685Z,14.66
2022-09-16T04:59:07.184Z,14.62
2022-09-16T05:01:38.258Z,14.64
2022-09-16T05:04:08.659Z,14.62
2022-09-16T05:06:39.129Z,14.63
2022-09-16T05:09:08.199Z,14.57
2022-09-16T05:11:39.739Z,14.59
2022-09-16T05:14:14.870Z,14.59
2022-09-16T05:16:43.620Z,14.55
2022-09-16T05:19:13.303Z,14.57
2022-09-16T05:21:42.750Z,14.62
2022-09-16T05:24:17.358Z,14.52
2022-09-16T05:26:47.330Z,14.50
2022-09-16T05:29:18.088Z,14.47
2022-09-16T05:31:48.312Z,14.50
2022-09-16T05:34:18.580Z,14.46
2022-09-16T05:36:48.074Z,14.50
2022-09-16T05:39:25.904Z,14.48
2022-09-16T05:42:00.159Z,14.41
2022-09-16T05:44:29.799Z,14.44
2022-09-16T05:46:58.606Z,14.42
2022-09-16T05:49:29.629Z,14.43
2022-09-16T05:51:58.132Z,14.41
2022-09-16T05:54:26.590Z,14.35
2022-09-16T05:56:56.479Z,14.40
2022-09-16T05:59:25.129Z,14.37
2022-09-16T06:01:53.842Z,14.37
2022-09-16T06:04:22.358Z,14.37
2022-09-16T06:06:50.849Z,14.41
2022-09-16T06:09:24.450Z,14.44
2022-09-16T06:12:01.612Z,14.40
2022-09-16T06:14:31.333Z,14.42
2022-09-16T06:16:59.909Z,14.40
2022-09-16T06:19:29.411Z,14.43
2022-09-16T06:21:57.919Z,14.42
2022-09-16T06:24:26.734Z,14.39
2022-09-16T06:26:57.209Z,14.37
2022-09-16T06:29:26.869Z,14.36
2022-09-16T06:31:55.459Z,14.39
2022-09-16T06:34:23.975Z,14.37
2022-09-16T06:36:52.720Z,14.35
2022-09-16T06:39:23.288Z,14.33
2022-09-16T06:41:52.202Z,14.36
2022-09-16T06:44:23.353Z,14.34
2022-09-16T06:46:51.989Z,14.42
2022-09-16T06:49:20.479Z,14.38
2022-09-16T06:51:48.982Z,14.34
2022-09-16T06:54:17.595Z,14.37
2022-09-16T06:56:46.058Z,14.36
2022-09-16T06:59:14.854Z,14.32
2022-09-16T07:01:45.142Z,14.37
2022-09-16T07:04:14.579Z,14.40
2022-09-16T07:07:08.250Z,14.38
2022-09-16T07:09:32.709Z,14.40
2022-09-16T07:12:01.328Z,14.52
2022-09-16T07:14:32.806Z,14.46
2022-09-16T07:17:03.559Z,14.29
2022-09-16T07:19:32.138Z,14.31
2022-09-16T07:22:00.639Z,14.34
2022-09-16T07:24:29.168Z,14.33
2022-09-16T07:26:57.638Z,14.33
2022-09-16T07:29:26.199Z,14.39
2022-09-16T07:31:54.716Z,14.42
2022-09-16T07:34:24.619Z,14.44
2022-09-16T07:36:53.353Z,14.46
2022-09-16T07:39:22.569Z,14.47
2022-09-16T07:41:51.050Z,14.48
2022-09-16T07:44:21.088Z,14.49
2022-09-16T07:46:51.582Z,14.50
2022-09-16T07:49:21.051Z,14.51
2022-09-16T07:51:52.130Z,14.50
2022-09-16T07:54:21.790Z,14.52
2022-09-16T07:56:50.308Z,14.53
2022-09-16T07:59:20.611Z,14.53
2022-09-16T08:01:50.303Z,14.56
2022-09-16T08:04:19.870Z,14.63
2022-09-16T08:06:48.979Z,14.63
2022-09-16T08:09:39.636Z,14.66
2022-09-16T08:12:11.102Z,14.68
2022-09-16T08:14:39.918Z,14.71
2022-09-16T08:17:08.383Z,14.72
2022-09-16T08:19:39.379Z,14.75
2022-09-16T08:22:07.899Z,14.80
2022-09-16T08:24:37.790Z,14.81
2022-09-16T08:27:06.789Z,14.77
2022-09-16T08:29:35.429Z,14.81
2022-09-16T08:32:04.283Z,14.84
2022-09-16T08:34:32.759Z,14.89
2022-09-16T08:37:01.268Z,14.91
2022-09-16T08:39:29.748Z,14.93
2022-09-16T08:42:25.550Z,14.93
2022-09-16T08:45:04.800Z,14.92
2022-09-16T08:47:48.569Z,14.95
2022-09-16T08:50:19.197Z,14.97
2022-09-16T08:52:48.930Z,14.96
2022-09-16T08:55:23.729Z,15.02
2022-09-16T08:58:01.349Z,15.02
2022-09-16T09:00:33.615Z,15.02
2022-09-16T09:03:16.334Z,15.10
2022-09-16T09:05:51.829Z,15.12
2022-09-16T09:08:35.278Z,15.12
2022-09-16T09:11:11.950Z,15.06
2022-09-16T09:13:53.368Z,15.06
2022-09-16T09:16:32.748Z,15.07
2022-09-16T09:19:15.349Z,15.05
2022-09-16T09:21:54.509Z,14.98
2022-09-16T09:24:36.869Z,15.03
2022-09-16T09:27:15.679Z,14.89
2022-09-16T09:30:09.108Z,14.93
2022-09-16T09:32:57.196Z,14.89
2022-09-16T09:35:39.048Z,14.98
2022-09-16T09:38:38.973Z,14.91
2022-09-16T09:41:13.728Z,15.07
2022-09-16T09:43:48.114Z,15.06
2022-09-16T09:46:26.723Z,14.71
2022-09-16T09:49:01.668Z,14.99
2022-09-16T09:51:35.748Z,14.86
2022-09-16T09:54:11.518Z,15.04
2022-09-16T09:56:46.291Z,14.88
2022-09-16T09:59:26.110Z,14.96
2022-09-16T10:02:01.024Z,15.02
2022-09-16T10:04:32.639Z,15.15
2022-09-16T10:07:04.399Z,14.88
2022-09-16T10:09:34.018Z,14.88
2022-09-16T10:12:02.551Z,14.86
2022-09-16T10:14:34.447Z,14.92
2022-09-16T10:17:06.182Z,15.04
2022-09-16T10:19:40.487Z,14.99
2022-09-16T10:22:20.646Z,15.00
2022-09-16T10:24:56.168Z,15.17
2022-09-16T10:27:29.847Z,15.24
2022-09-16T10:30:11.961Z,15.13
2022-09-16T10:32:50.258Z,15.09
2022-09-16T10:35:24.842Z,15.13
2022-09-16T10:37:56.059Z,15.33
2022-09-16T10:40:34.674Z,15.48
2022-09-16T10:43:17.399Z,15.36
2022-09-16T10:45:49.353Z,15.41
2022-09-16T10:48:23.418Z,15.44
2022-09-16T10:50:59.687Z,15.43
2022-09-16T10:53:39.093Z,15.49
2022-09-16T10:56:19.577Z,15.50
2022-09-16T10:58:48.538Z,15.36
2022-09-16T11:01:33.657Z,15.61
2022-09-16T11:04:29.793Z,15.56
2022-09-16T11:07:08.849Z,15.46
2022-09-16T11:09:47.077Z,15.53
2022-09-16T11:12:44.498Z,15.68
2022-09-16T11:15:24.521Z,15.66
2022-09-16T11:18:10.597Z,15.55
2022-09-16T11:20:52.717Z,15.34
2022-09-16T11:23:35.167Z,15.48
2022-09-16T11:26:14.256Z,15.40
2022-09-16T11:28:53.990Z,15.57
2022-09-16T11:31:35.850Z,15.71
2022-09-16T11:34:12.357Z,15.90
2022-09-16T11:36:57.386Z,15.58
2022-09-16T11:39:51.386Z,15.67
2022-09-16T11:42:29.477Z,15.52
2022-09-16T11:45:04.667Z,15.72
2022-09-16T11:47:50.757Z,15.73
2022-09-16T11:50:30.506Z,15.66
2022-09-16T11:53:32.380Z,15.81
2022-09-16T11:56:08.426Z,15.98
2022-09-16T11:58:45.368Z,15.85
2022-09-16T12:01:28.116Z,15.87
2022-09-16T12:04:03.977Z,15.87
2022-09-16T12:06:35.806Z,16.01
2022-09-16T12:09:11.035Z,15.84
2022-09-16T12:11:43.981Z,15.86
2022-09-16T12:14:20.446Z,15.87
2022-09-16T12:16:53.717Z,16.03
2022-09-16T12:19:25.298Z,16.08
2022-09-16T12:21:58.419Z,16.01
2022-09-16T12:24:37.939Z,15.78
2022-09-16T12:27:48.031Z,15.84
2022-09-16T12:30:24.044Z,15.74
2022-09-16T12:33:02.785Z,15.71
2022-09-16T12:35:35.818Z,15.71
2022-09-16T12:38:07.937Z,15.90
2022-09-16T12:40:54.377Z,15.46
2022-09-16T12:43:53.018Z,15.75
2022-09-16T12:46:50.534Z,15.69
2022-09-16T12:49:56.737Z,15.80
2022-09-16T12:52:45.782Z,15.82
2022-09-16T12:55:38.796Z,15.94
2022-09-16T12:58:50.497Z,16.09
2022-09-16T13:01:24.528Z,16.03
2022-09-16T13:03:56.835Z,16.08
2022-09-16T13:06:30.129Z,16.08
2022-09-16T13:09:11.847Z,16.14
2022-09-16T13:14:35.137Z,16.13
2022-09-16T13:17:03.958Z,16.09
2022-09-16T13:19:46.488Z,16.09
2022-09-16T13:22:30.528Z,16.27
2022-09-16T13:25:10.208Z,16.34
2022-09-16T13:27:40.518Z,16.44
2022-09-16T13:30:35.128Z,16.38
2022-09-16T13:33:26.586Z,16.17
2022-09-16T13:36:16.900Z,16.26
2022-09-16T13:38:47.348Z,16.31
2022-09-16T13:41:16.409Z,16.56
2022-09-16T13:43:54.168Z,16.52
2022-09-16T13:46:33.777Z,16.69
2022-09-16T13:49:24.878Z,16.54
2022-09-16T13:51:54.348Z,16.40
2022-09-16T13:54:43.297Z,16.48
2022-09-16T13:57:50.938Z,16.59
2022-09-16T14:00:25.081Z,16.51
2022-09-16T14:03:23.526Z,16.63
2022-09-16T14:06:23.759Z,16.64
2022-09-16T14:09:01.634Z,16.51
2022-09-16T14:11:39.729Z,16.63
2022-09-16T14:14:36.118Z,16.63
2022-09-16T14:17:06.813Z,16.43
2022-09-16T14:19:40.304Z,16.72
2022-09-16T14:22:16.651Z,16.67
2022-09-16T14:24:46.654Z,16.43
2022-09-16T14:27:23.668Z,16.30
2022-09-16T14:30:02.650Z,16.31
2022-09-16T14:32:34.629Z,15.98
2022-09-16T14:35:12.224Z,15.89
2022-09-16T14:37:46.770Z,15.99
2022-09-16T14:40:18.106Z,16.04
2022-09-16T14:42:50.645Z,16.12
2022-09-16T14:45:20.230Z,16.18
2022-09-16T14:47:53.417Z,16.25
2022-09-16T14:50:32.184Z,16.34
2022-09-16T14:53:07.340Z,16.22
2022-09-16T14:55:40.459Z,16.12
2022-09-16T14:58:12.601Z,16.09
2022-09-16T15:00:45.569Z,16.19
2022-09-16T15:03:19.110Z,16.07
2022-09-16T15:05:50.799Z,16.14
2022-09-16T15:08:23.729Z,16.31
2022-09-16T15:10:55.749Z,16.40
2022-09-16T15:13:27.378Z,16.62
2022-09-16T15:15:59.189Z,16.53
2022-09-16T15:18:33.438Z,16.75
2022-09-16T15:21:10.628Z,16.63
2022-09-16T15:23:42.340Z,16.41
2022-09-16T15:26:15.954Z,16.29
2022-09-16T15:28:53.810Z,16.32
2022-09-16T15:31:39.338Z,16.41
2022-09-16T15:34:22.309Z,16.56
2022-09-16T15:36:56.501Z,16.53
2022-09-16T15:39:27.366Z,16.68
2022-09-16T15:42:12.368Z,16.79
2022-09-16T15:44:48.078Z,16.86
2022-09-16T15:47:20.679Z,16.98
2022-09-16T15:49:53.689Z,16.98
2022-09-16T15:52:24.220Z,16.90
2022-09-16T15:54:57.618Z,16.88
2022-09-16T15:57:34.378Z,16.83
2022-09-16T16:00:13.939Z,16.78
2022-09-16T16:02:47.054Z,16.59
2022-09-16T16:05:18.349Z,16.80
2022-09-16T16:07:51.059Z,16.74
2022-09-16T16:10:23.535Z,16.63
2022-09-16T16:12:54.839Z,16.60
2022-09-16T16:15:29.284Z,16.69
2022-09-16T16:18:03.090Z,16.58
2022-09-16T16:20:34.934Z,16.67
2022-09-16T16:23:05.412Z,16.69
2022-09-16T16:25:35.538Z,16.73
2022-09-16T16:28:04.448Z,16.80
2022-09-16T16:30:33.230Z,16.92
2022-09-16T16:33:02.048Z,17.16
2022-09-16T16:35:30.860Z,17.53
2022-09-16T16:37:59.829Z,18.31
2022-09-16T16:40:30.082Z,19.13
2022-09-16T16:42:58.990Z,19.70
2022-09-16T16:45:28.029Z,20.06
2022-09-16T16:47:59.940Z,20.39
2022-09-16T16:50:28.680Z,20.04
2022-09-16T16:52:58.550Z,18.38
2022-09-16T16:55:27.319Z,17.71
2022-09-16T16:58:04.988Z,17.45
2022-09-16T17:00:33.739Z,17.31
2022-09-16T17:03:05.106Z,17.25
2022-09-16T17:05:33.829Z,17.18
2022-09-16T17:08:02.692Z,17.21
2022-09-16T17:10:31.380Z,17.24
2022-09-16T17:13:01.609Z,17.47
2022-09-16T17:15:30.265Z,18.09
2022-09-16T17:18:00.780Z,20.19
2022-09-16T17:20:33.749Z,20.54
2022-09-16T17:23:05.049Z,19.18
2022-09-16T17:25:35.419Z,22.12
2022-09-16T17:28:05.633Z,23.72
2022-09-16T17:30:34.369Z,24.32
2022-09-16T17:33:03.129Z,24.62
2022-09-16T17:35:31.789Z,24.86
2022-09-16T17:38:06.695Z,25.00
2022-09-16T17:40:36.364Z,24.90
2022-09-16T17:43:07.639Z,24.73
2022-09-16T17:45:38.129Z,24.53
2022-09-16T17:48:06.759Z,24.22
2022-09-16T17:50:35.359Z,23.96
2022-09-16T17:53:06.970Z,23.35
2022-09-16T17:55:35.639Z,23.34
2022-09-16T17:58:06.201Z,23.00
2022-09-16T18:00:34.880Z,22.53
2022-09-16T18:03:03.840Z,21.07
2022-09-16T18:05:35.005Z,19.49
2022-09-16T18:08:06.429Z,18.71
2022-09-16T18:10:37.670Z,18.27
2022-09-16T18:13:07.819Z,18.00
2022-09-16T18:15:36.469Z,17.75
2022-09-16T18:18:05.249Z,17.62
2022-09-16T18:20:35.340Z,17.50
2022-09-16T18:23:06.331Z,17.43
2022-09-16T18:25:38.759Z,17.49
2022-09-16T18:28:08.919Z,17.59
2022-09-16T18:30:39.377Z,17.57
2022-09-16T18:33:09.470Z,17.45
2022-09-16T18:35:39.630Z,17.25
2022-09-16T18:38:13.144Z,17.27
2022-09-16T18:40:42.136Z,17.13
2022-09-16T18:43:14.961Z,17.26
2022-09-16T18:45:43.655Z,17.08
2022-09-16T18:48:12.294Z,17.01
2022-09-16T18:50:40.959Z,17.00
2022-09-16T18:53:09.711Z,16.99
2022-09-16T18:55:38.289Z,17.02
2022-09-16T18:58:07.029Z,17.08
2022-09-16T19:00:40.689Z,17.14
2022-09-16T19:03:16.336Z,17.21
2022-09-16T19:05:56.240Z,17.27
2022-09-16T19:08:27.144Z,17.27
2022-09-16T19:10:55.769Z,17.26
2022-09-16T19:13:25.179Z,17.20
2022-09-16T19:15:59.525Z,17.18
2022-09-16T19:18:29.341Z,17.15
2022-09-16T19:20:59.574Z,17.07
2022-09-16T19:23:28.329Z,17.06
2022-09-16T19:26:03.269Z,17.08
2022-09-16T19:28:32.611Z,17.02
2022-09-16T19:31:06.829Z,17.00
2022-09-16T19:33:36.199Z,16.98
2022-09-16T19:36:12.693Z,16.94
2022-09-16T19:38:44.757Z,16.90
2022-09-16T19:41:14.266Z,16.92
2022-09-16T19:43:43.559Z,16.87
2022-09-16T19:46:16.317Z,16.77
2022-09-16T19:48:46.470Z,16.67
2022-09-16T19:51:16.819Z,16.70
2022-09-16T19:53:49.373Z,16.59
2022-09-16T19:56:21.579Z,16.59
2022-09-16T19:58:51.369Z,16.52
2022-09-16T20:01:23.942Z,16.51
2022-09-16T20:03:53.000Z,16.46
2022-09-16T20:06:24.466Z,16.37
2022-09-16T20:08:56.824Z,16.41
2022-09-16T20:11:27.874Z,16.53
2022-09-16T20:14:00.970Z,16.53
2022-09-16T20:16:35.884Z,16.50
2022-09-16T20:19:07.039Z,16.44
2022-09-16T20:21:38.149Z,16.48
2022-09-16T20:24:08.869Z,16.45
2022-09-16T20:26:39.089Z,16.45
2022-09-16T20:29:09.305Z,16.42
2022-09-16T20:31:39.808Z,16.44
2022-09-16T20:34:08.558Z,16.43
2022-09-16T20:36:39.835Z,16.38
2022-09-16T20:39:10.319Z,16.43
2022-09-16T20:41:40.583Z,16.32
2022-09-16T20:44:09.225Z,16.29
2022-09-16T20:46:40.225Z,16.19
2022-09-16T20:49:11.449Z,16.18
2022-09-16T20:51:41.601Z,16.18
2022-09-16T20:54:12.370Z,16.10
2022-09-16T20:56:42.542Z,16.08
2022-09-16T20:59:13.600Z,16.13
2022-09-16T21:01:44.339Z,16.13
2022-09-16T21:04:15.750Z,16.09
2022-09-16T21:06:46.199Z,15.99
2022-09-16T21:09:18.410Z,16.04
2022-09-16T21:11:48.160Z,15.99
2022-09-16T21:14:21.839Z,16.02
2022-09-16T21:16:53.249Z,16.01
2022-09-16T21:19:22.379Z,15.94
2022-09-16T21:21:51.299Z,15.95
2022-09-16T21:24:20.309Z,15.90
2022-09-16T21:26:50.009Z,15.86
2022-09-16T21:29:21.649Z,15.87
2022-09-16T21:31:52.327Z,15.83
2022-09-16T21:34:26.669Z,15.82
2022-09-16T21:36:59.240Z,15.80
2022-09-16T21:39:28.381Z,15.81
2022-09-16T21:41:56.914Z,15.77
2022-09-16T21:44:25.861Z,15.77
2022-09-16T21:46:55.977Z,15.70
2022-09-16T21:49:25.918Z,15.71
2022-09-16T21:51:55.718Z,15.71
2022-09-16T21:54:25.544Z,15.70
2022-09-16T21:56:54.348Z,15.77
2022-09-16T21:59:22.994Z,15.70
2022-09-16T22:01:53.921Z,15.64
2022-09-16T22:04:27.520Z,15.55
2022-09-16T22:06:57.255Z,15.57
2022-09-16T22:09:26.439Z,15.56
2022-09-16T22:11:55.719Z,15.52
2022-09-16T22:14:27.049Z,15.67
2022-09-16T22:16:57.881Z,15.61
2022-09-16T22:19:28.044Z,15.62
2022-09-16T22:21:58.283Z,15.65
2022-09-16T22:24:26.894Z,15.58
2022-09-16T22:26:58.404Z,15.63
2022-09-16T22:29:31.747Z,15.61
2022-09-16T22:32:00.599Z,15.60
2022-09-16T22:34:35.746Z,15.60
2022-09-16T22:37:14.289Z,15.66
2022-09-16T22:39:50.143Z,15.61
2022-09-16T22:42:22.161Z,15.61
2022-09-16T22:44:51.610Z,15.55
2022-09-16T22:47:29.800Z,15.64
2022-09-16T22:50:02.298Z,15.66
2022-09-16T22:52:48.238Z,15.56
2022-09-16T22:55:17.054Z,15.56
2022-09-16T22:57:45.869Z,15.51
2022-09-16T23:00:15.769Z,15.53
2022-09-16T23:02:44.414Z,15.47
2022-09-16T23:05:14.959Z,15.53
2022-09-16T23:07:43.559Z,15.51
2022-09-16T23:10:12.359Z,15.52
2022-09-16T23:12:41.259Z,15.49
2022-09-16T23:15:11.919Z,15.51
2022-09-16T23:17:42.159Z,15.51
2022-09-16T23:20:11.331Z,15.55
2022-09-16T23:22:42.699Z,15.49
2022-09-16T23:25:14.449Z,15.55
2022-09-16T23:27:43.144Z,15.49
2022-09-16T23:30:12.799Z,15.47
2022-09-16T23:32:41.419Z,15.44
2022-09-16T23:35:10.870Z,15.47
2022-09-16T23:37:39.439Z,15.44
2022-09-16T23:40:11.204Z,15.48
2022-09-16T23:42:39.859Z,15.41
2022-09-16T23:45:09.189Z,15.41
2022-09-16T23:47:37.798Z,15.45
2022-09-16T23:50:07.716Z,15.38
2022-09-16T23:52:36.313Z,15.37
2022-09-16T23:55:05.269Z,15.38
2022-09-16T23:57:35.320Z,15.32
